sensor_id;sensor_type;location;lat;lon;timestamp;temperature;humidity
25550;DHT22;13444;50.562;7.262;2023-10-08T00:01:43;14.90;99.90
25550;DHT22;13444;50.562;7.262;2023-10-08T00:04:09;14.80;99.90
25550;DHT22;13444;50.562;7.262;2023-10-08T00:06:36;14.80;99.90
25550;DHT22;13444;50.562;7.262;2023-10-08T00:09:03;14.80;99.90
25550;DHT22;13444;50.562;7.262;2023-10-08T00:11:36;14.80;99.90
25550;DHT22;13444;50.562;7.262;2023-10-08T00:14:05;14.80;99.90
25550;DHT22;13444;50.562;7.262;2023-10-08T00:16:35;14.80;99.90
25550;DHT22;13444;50.562;7.262;2023-10-08T00:19:04;14.80;99.90
25550;DHT22;13444;50.562;7.262;2023-10-08T00:21:38;14.80;99.90
25550;DHT22;13444;50.562;7.262;2023-10-08T00:24:05;14.90;99.90
25550;DHT22;13444;50.562;7.262;2023-10-08T00:26:32;14.90;99.90
25550;DHT22;13444;50.562;7.262;2023-10-08T00:29:00;14.90;99.90
25550;DHT22;13444;50.562;7.262;2023-10-08T00:31:29;14.90;99.90
25550;DHT22;13444;50.562;7.262;2023-10-08T00:34:06;14.90;99.90
25550;DHT22;13444;50.562;7.262;2023-10-08T00:36:37;14.90;99.90
25550;DHT22;13444;50.562;7.262;2023-10-08T00:39:04;14.90;99.90
25550;DHT22;13444;50.562;7.262;2023-10-08T00:41:33;14.90;99.90
25550;DHT22;13444;50.562;7.262;2023-10-08T00:43:59;14.90;99.90
25550;DHT22;13444;50.562;7.262;2023-10-08T00:46:26;14.90;99.90
25550;DHT22;13444;50.562;7.262;2023-10-08T00:48:59;14.80;99.90
25550;DHT22;13444;50.562;7.262;2023-10-08T00:51:46;14.80;99.90
25550;DHT22;13444;50.562;7.262;2023-10-08T00:54:24;14.70;99.90
25550;DHT22;13444;50.562;7.262;2023-10-08T00:56:53;14.80;99.90
25550;DHT22;13444;50.562;7.262;2023-10-08T00:59:24;14.70;99.90
25550;DHT22;13444;50.562;7.262;2023-10-08T01:01:52;14.70;99.90
25550;DHT22;13444;50.562;7.262;2023-10-08T01:04:22;14.60;99.90
25550;DHT22;13444;50.562;7.262;2023-10-08T01:06:51;14.60;99.90
25550;DHT22;13444;50.562;7.262;2023-10-08T01:09:21;14.50;99.90
25550;DHT22;13444;50.562;7.262;2023-10-08T01:12:22;14.40;99.90
25550;DHT22;13444;50.562;7.262;2023-10-08T01:14:48;14.40;99.90
25550;DHT22;13444;50.562;7.262;2023-10-08T01:17:15;14.40;99.90
25550;DHT22;13444;50.562;7.262;2023-10-08T01:19:47;14.30;99.90
25550;DHT22;13444;50.562;7.262;2023-10-08T01:22:19;14.30;99.90
25550;DHT22;13444;50.562;7.262;2023-10-08T01:24:50;14.30;99.90
25550;DHT22;13444;50.562;7.262;2023-10-08T01:27:17;14.30;99.90
25550;DHT22;13444;50.562;7.262;2023-10-08T01:29:48;14.20;99.90
25550;DHT22;13444;50.562;7.262;2023-10-08T01:32:21;14.20;99.90
25550;DHT22;13444;50.562;7.262;2023-10-08T01:34:48;14.20;99.90
25550;DHT22;13444;50.562;7.262;2023-10-08T01:37:17;14.10;99.90
25550;DHT22;13444;50.562;7.262;2023-10-08T01:39:47;14.10;99.90
25550;DHT22;13444;50.562;7.262;2023-10-08T01:42:15;14.00;99.90
25550;DHT22;13444;50.562;7.262;2023-10-08T01:44:47;14.00;99.90
25550;DHT22;13444;50.562;7.262;2023-10-08T01:47:13;14.00;99.90
25550;DHT22;13444;50.562;7.262;2023-10-08T01:49:39;14.00;99.90
25550;DHT22;13444;50.562;7.262;2023-10-08T01:52:05;14.00;99.90
25550;DHT22;13444;50.562;7.262;2023-10-08T01:54:33;14.00;99.90
25550;DHT22;13444;50.562;7.262;2023-10-08T01:57:01;13.90;99.90
25550;DHT22;13444;50.562;7.262;2023-10-08T01:59:26;13.90;99.90
25550;DHT22;13444;50.562;7.262;2023-10-08T02:01:52;13.90;99.90
25550;DHT22;13444;50.562;7.262;2023-10-08T02:04:21;13.90;99.90
25550;DHT22;13444;50.562;7.262;2023-10-08T02:06:47;13.80;99.90
25550;DHT22;13444;50.562;7.262;2023-10-08T02:09:12;13.80;99.90
25550;DHT22;13444;50.562;7.262;2023-10-08T02:11:49;13.80;99.90
25550;DHT22;13444;50.562;7.262;2023-10-08T02:14:20;13.80;99.90
25550;DHT22;13444;50.562;7.262;2023-10-08T02:16:46;13.70;99.90
25550;DHT22;13444;50.562;7.262;2023-10-08T02:19:13;13.70;99.90
25550;DHT22;13444;50.562;7.262;2023-10-08T02:21:39;13.70;99.90
25550;DHT22;13444;50.562;7.262;2023-10-08T02:24:06;13.70;99.90
25550;DHT22;13444;50.562;7.262;2023-10-08T02:26:32;13.70;99.90
25550;DHT22;13444;50.562;7.262;2023-10-08T02:29:00;13.60;99.90
25550;DHT22;13444;50.562;7.262;2023-10-08T02:31:26;13.60;99.90
25550;DHT22;13444;50.562;7.262;2023-10-08T02:33:51;13.60;99.90
25550;DHT22;13444;50.562;7.262;2023-10-08T02:36:17;13.50;99.90
25550;DHT22;13444;50.562;7.262;2023-10-08T02:38:42;13.50;99.90
25550;DHT22;13444;50.562;7.262;2023-10-08T02:41:08;13.50;99.90
25550;DHT22;13444;50.562;7.262;2023-10-08T02:43:33;13.50;99.90
25550;DHT22;13444;50.562;7.262;2023-10-08T02:46:02;13.50;99.90
25550;DHT22;13444;50.562;7.262;2023-10-08T02:48:33;13.40;99.90
25550;DHT22;13444;50.562;7.262;2023-10-08T02:51:00;13.40;99.90
25550;DHT22;13444;50.562;7.262;2023-10-08T02:53:33;13.30;99.90
25550;DHT22;13444;50.562;7.262;2023-10-08T02:55:59;13.30;99.90
25550;DHT22;13444;50.562;7.262;2023-10-08T02:58:24;13.20;99.90
25550;DHT22;13444;50.562;7.262;2023-10-08T03:00:53;13.20;99.90
25550;DHT22;13444;50.562;7.262;2023-10-08T03:03:18;13.20;99.90
25550;DHT22;13444;50.562;7.262;2023-10-08T03:05:45;13.10;99.90
25550;DHT22;13444;50.562;7.262;2023-10-08T03:08:12;13.10;99.90
25550;DHT22;13444;50.562;7.262;2023-10-08T03:10:38;13.10;99.90
25550;DHT22;13444;50.562;7.262;2023-10-08T03:13:05;13.10;99.90
25550;DHT22;13444;50.562;7.262;2023-10-08T03:15:31;13.10;99.90
25550;DHT22;13444;50.562;7.262;2023-10-08T03:18:13;13.00;99.90
25550;DHT22;13444;50.562;7.262;2023-10-08T03:20:42;13.00;99.90
25550;DHT22;13444;50.562;7.262;2023-10-08T03:23:12;13.00;99.90
25550;DHT22;13444;50.562;7.262;2023-10-08T03:25:50;13.00;99.90
25550;DHT22;13444;50.562;7.262;2023-10-08T03:28:21;13.10;99.90
25550;DHT22;13444;50.562;7.262;2023-10-08T03:30:51;13.10;99.90
25550;DHT22;13444;50.562;7.262;2023-10-08T03:33:17;13.10;99.90
25550;DHT22;13444;50.562;7.262;2023-10-08T03:35:48;13.10;99.90
25550;DHT22;13444;50.562;7.262;2023-10-08T03:38:25;13.00;99.90
25550;DHT22;13444;50.562;7.262;2023-10-08T03:40:56;13.00;99.90
25550;DHT22;13444;50.562;7.262;2023-10-08T03:43:26;13.00;99.90
25550;DHT22;13444;50.562;7.262;2023-10-08T03:46:12;13.10;99.90
25550;DHT22;13444;50.562;7.262;2023-10-08T03:48:42;13.10;99.90
25550;DHT22;13444;50.562;7.262;2023-10-08T03:51:11;13.20;99.90
25550;DHT22;13444;50.562;7.262;2023-10-08T03:53:38;13.20;99.90
25550;DHT22;13444;50.562;7.262;2023-10-08T03:56:30;13.20;99.90
25550;DHT22;13444;50.562;7.262;2023-10-08T03:58:57;13.10;99.90
25550;DHT22;13444;50.562;7.262;2023-10-08T04:01:26;13.10;99.90
25550;DHT22;13444;50.562;7.262;2023-10-08T04:03:55;13.20;99.90
25550;DHT22;13444;50.562;7.262;2023-10-08T04:06:28;13.20;99.90
25550;DHT22;13444;50.562;7.262;2023-10-08T04:08:56;13.20;99.90
25550;DHT22;13444;50.562;7.262;2023-10-08T04:11:34;13.20;99.90
25550;DHT22;13444;50.562;7.262;2023-10-08T04:14:17;13.20;99.90
25550;DHT22;13444;50.562;7.262;2023-10-08T04:16:43;13.30;99.90
25550;DHT22;13444;50.562;7.262;2023-10-08T04:19:10;13.30;99.90
25550;DHT22;13444;50.562;7.262;2023-10-08T04:21:36;13.30;99.90
25550;DHT22;13444;50.562;7.262;2023-10-08T04:24:02;13.30;99.90
25550;DHT22;13444;50.562;7.262;2023-10-08T04:26:32;13.20;99.90
25550;DHT22;13444;50.562;7.262;2023-10-08T04:28:59;13.20;99.90
25550;DHT22;13444;50.562;7.262;2023-10-08T04:31:34;13.20;99.90
25550;DHT22;13444;50.562;7.262;2023-10-08T04:34:09;13.20;99.90
25550;DHT22;13444;50.562;7.262;2023-10-08T04:36:42;13.20;99.90
25550;DHT22;13444;50.562;7.262;2023-10-08T04:39:10;13.20;99.90
25550;DHT22;13444;50.562;7.262;2023-10-08T04:41:41;13.20;99.90
25550;DHT22;13444;50.562;7.262;2023-10-08T04:44:10;13.20;99.90
25550;DHT22;13444;50.562;7.262;2023-10-08T04:46:41;13.20;99.90
25550;DHT22;13444;50.562;7.262;2023-10-08T04:49:15;13.20;99.90
25550;DHT22;13444;50.562;7.262;2023-10-08T04:51:55;13.20;99.90
25550;DHT22;13444;50.562;7.262;2023-10-08T04:54:28;13.20;99.90
25550;DHT22;13444;50.562;7.262;2023-10-08T04:56:56;13.20;99.90
25550;DHT22;13444;50.562;7.262;2023-10-08T04:59:24;13.20;99.90
25550;DHT22;13444;50.562;7.262;2023-10-08T05:02:01;13.20;99.90
25550;DHT22;13444;50.562;7.262;2023-10-08T05:04:50;13.20;99.90
25550;DHT22;13444;50.562;7.262;2023-10-08T05:07:32;13.20;99.90
25550;DHT22;13444;50.562;7.262;2023-10-08T05:10:11;13.20;99.90
25550;DHT22;13444;50.562;7.262;2023-10-08T05:12:49;13.30;99.90
25550;DHT22;13444;50.562;7.262;2023-10-08T05:15:41;13.30;99.90
25550;DHT22;13444;50.562;7.262;2023-10-08T05:18:15;13.20;99.90
25550;DHT22;13444;50.562;7.262;2023-10-08T05:20:44;13.20;99.90
25550;DHT22;13444;50.562;7.262;2023-10-08T05:23:16;13.20;99.90
25550;DHT22;13444;50.562;7.262;2023-10-08T05:25:55;13.20;99.90
25550;DHT22;13444;50.562;7.262;2023-10-08T05:28:38;13.20;99.90
25550;DHT22;13444;50.562;7.262;2023-10-08T05:31:30;13.20;99.90
25550;DHT22;13444;50.562;7.262;2023-10-08T05:34:08;13.20;99.90
25550;DHT22;13444;50.562;7.262;2023-10-08T05:36:42;13.30;99.90
25550;DHT22;13444;50.562;7.262;2023-10-08T05:39:26;13.30;99.90
25550;DHT22;13444;50.562;7.262;2023-10-08T05:41:58;13.20;99.90
25550;DHT22;13444;50.562;7.262;2023-10-08T05:44:41;13.20;99.90
25550;DHT22;13444;50.562;7.262;2023-10-08T05:47:36;13.20;99.90
25550;DHT22;13444;50.562;7.262;2023-10-08T05:50:03;13.10;99.90
25550;DHT22;13444;50.562;7.262;2023-10-08T05:52:47;13.10;99.90
25550;DHT22;13444;50.562;7.262;2023-10-08T05:55:36;13.10;99.90
25550;DHT22;13444;50.562;7.262;2023-10-08T05:58:12;13.10;99.90
25550;DHT22;13444;50.562;7.262;2023-10-08T06:00:43;13.10;99.90
25550;DHT22;13444;50.562;7.262;2023-10-08T06:03:14;13.00;99.90
25550;DHT22;13444;50.562;7.262;2023-10-08T06:06:06;13.00;99.90
25550;DHT22;13444;50.562;7.262;2023-10-08T06:08:38;13.00;99.90
25550;DHT22;13444;50.562;7.262;2023-10-08T06:11:18;13.10;99.90
25550;DHT22;13444;50.562;7.262;2023-10-08T06:13:56;13.10;99.90
25550;DHT22;13444;50.562;7.262;2023-10-08T06:16:26;13.20;99.90
25550;DHT22;13444;50.562;7.262;2023-10-08T06:19:10;13.20;99.90
25550;DHT22;13444;50.562;7.262;2023-10-08T06:21:39;13.20;99.90
25550;DHT22;13444;50.562;7.262;2023-10-08T06:24:06;13.20;99.90
25550;DHT22;13444;50.562;7.262;2023-10-08T06:26:35;13.20;99.90
25550;DHT22;13444;50.562;7.262;2023-10-08T06:29:04;13.30;99.90
25550;DHT22;13444;50.562;7.262;2023-10-08T06:31:44;13.30;99.90
25550;DHT22;13444;50.562;7.262;2023-10-08T06:34:16;13.40;99.90
25550;DHT22;13444;50.562;7.262;2023-10-08T06:36:41;13.40;99.90
25550;DHT22;13444;50.562;7.262;2023-10-08T06:39:07;13.40;99.90
25550;DHT22;13444;50.562;7.262;2023-10-08T06:41:37;13.40;99.90
25550;DHT22;13444;50.562;7.262;2023-10-08T06:44:03;13.50;99.90
25550;DHT22;13444;50.562;7.262;2023-10-08T06:46:29;13.50;99.90
25550;DHT22;13444;50.562;7.262;2023-10-08T06:48:58;13.50;99.90
25550;DHT22;13444;50.562;7.262;2023-10-08T06:51:24;13.60;99.90
25550;DHT22;13444;50.562;7.262;2023-10-08T06:53:51;13.60;99.90
25550;DHT22;13444;50.562;7.262;2023-10-08T06:56:17;13.60;99.90
25550;DHT22;13444;50.562;7.262;2023-10-08T06:58:45;13.60;99.90
25550;DHT22;13444;50.562;7.262;2023-10-08T07:01:15;13.70;99.90
25550;DHT22;13444;50.562;7.262;2023-10-08T07:03:49;13.70;99.90
25550;DHT22;13444;50.562;7.262;2023-10-08T07:06:16;13.70;99.90
25550;DHT22;13444;50.562;7.262;2023-10-08T07:09:00;13.70;99.90
25550;DHT22;13444;50.562;7.262;2023-10-08T07:11:30;13.80;99.90
25550;DHT22;13444;50.562;7.262;2023-10-08T07:14:03;13.80;99.90
25550;DHT22;13444;50.562;7.262;2023-10-08T07:16:30;13.80;99.90
25550;DHT22;13444;50.562;7.262;2023-10-08T07:18:56;13.80;99.90
25550;DHT22;13444;50.562;7.262;2023-10-08T07:21:28;13.80;99.90
25550;DHT22;13444;50.562;7.262;2023-10-08T07:23:56;13.80;99.90
25550;DHT22;13444;50.562;7.262;2023-10-08T07:26:25;13.90;99.90
25550;DHT22;13444;50.562;7.262;2023-10-08T07:28:52;13.90;99.90
25550;DHT22;13444;50.562;7.262;2023-10-08T07:31:22;13.90;99.90
25550;DHT22;13444;50.562;7.262;2023-10-08T07:33:50;13.90;99.90
25550;DHT22;13444;50.562;7.262;2023-10-08T07:36:26;13.90;99.90
25550;DHT22;13444;50.562;7.262;2023-10-08T07:38:52;14.10;99.90
25550;DHT22;13444;50.562;7.262;2023-10-08T07:41:18;14.20;99.90
25550;DHT22;13444;50.562;7.262;2023-10-08T07:43:46;14.30;99.90
25550;DHT22;13444;50.562;7.262;2023-10-08T07:46:12;14.30;99.90
25550;DHT22;13444;50.562;7.262;2023-10-08T07:48:40;14.40;99.90
25550;DHT22;13444;50.562;7.262;2023-10-08T07:51:09;14.40;99.90
25550;DHT22;13444;50.562;7.262;2023-10-08T07:53:34;14.40;99.90
25550;DHT22;13444;50.562;7.262;2023-10-08T07:56:06;14.40;99.90
25550;DHT22;13444;50.562;7.262;2023-10-08T07:58:32;14.40;99.90
25550;DHT22;13444;50.562;7.262;2023-10-08T08:01:03;14.50;99.90
25550;DHT22;13444;50.562;7.262;2023-10-08T08:03:31;14.50;99.90
25550;DHT22;13444;50.562;7.262;2023-10-08T08:05:56;14.60;99.90
25550;DHT22;13444;50.562;7.262;2023-10-08T08:08:24;14.60;99.90
25550;DHT22;13444;50.562;7.262;2023-10-08T08:10:52;14.70;99.90
25550;DHT22;13444;50.562;7.262;2023-10-08T08:13:23;14.70;99.90
25550;DHT22;13444;50.562;7.262;2023-10-08T08:15:53;14.90;99.90
25550;DHT22;13444;50.562;7.262;2023-10-08T08:18:26;15.10;99.90
25550;DHT22;13444;50.562;7.262;2023-10-08T08:20:58;15.30;99.90
25550;DHT22;13444;50.562;7.262;2023-10-08T08:23:30;15.40;99.90
25550;DHT22;13444;50.562;7.262;2023-10-08T08:25:56;15.50;99.90
25550;DHT22;13444;50.562;7.262;2023-10-08T08:28:22;15.60;99.90
25550;DHT22;13444;50.562;7.262;2023-10-08T08:30:50;15.60;99.90
25550;DHT22;13444;50.562;7.262;2023-10-08T08:33:18;15.70;99.90
25550;DHT22;13444;50.562;7.262;2023-10-08T08:36:00;15.70;99.90
25550;DHT22;13444;50.562;7.262;2023-10-08T08:38:27;15.80;99.90
25550;DHT22;13444;50.562;7.262;2023-10-08T08:41:04;15.80;99.90
25550;DHT22;13444;50.562;7.262;2023-10-08T08:43:34;15.90;99.90
25550;DHT22;13444;50.562;7.262;2023-10-08T08:46:04;16.00;99.90
25550;DHT22;13444;50.562;7.262;2023-10-08T08:48:36;16.10;99.90
25550;DHT22;13444;50.562;7.262;2023-10-08T08:51:04;16.50;99.90
25550;DHT22;13444;50.562;7.262;2023-10-08T08:53:32;16.90;99.90
25550;DHT22;13444;50.562;7.262;2023-10-08T08:55:59;17.30;99.90
25550;DHT22;13444;50.562;7.262;2023-10-08T08:58:26;17.70;99.90
25550;DHT22;13444;50.562;7.262;2023-10-08T09:00:53;18.10;99.90
25550;DHT22;13444;50.562;7.262;2023-10-08T09:03:21;18.40;99.90
25550;DHT22;13444;50.562;7.262;2023-10-08T09:05:58;18.70;99.90
25550;DHT22;13444;50.562;7.262;2023-10-08T09:08:28;19.10;99.90
25550;DHT22;13444;50.562;7.262;2023-10-08T09:10:57;19.50;99.90
25550;DHT22;13444;50.562;7.262;2023-10-08T09:13:26;19.60;98.70
25550;DHT22;13444;50.562;7.262;2023-10-08T09:15:56;19.60;97.50
25550;DHT22;13444;50.562;7.262;2023-10-08T09:18:24;19.60;96.60
25550;DHT22;13444;50.562;7.262;2023-10-08T09:20:52;19.60;97.40
25550;DHT22;13444;50.562;7.262;2023-10-08T09:23:18;19.80;96.00
25550;DHT22;13444;50.562;7.262;2023-10-08T09:25:47;20.00;90.70
25550;DHT22;13444;50.562;7.262;2023-10-08T09:28:17;20.20;79.70
25550;DHT22;13444;50.562;7.262;2023-10-08T09:30:43;20.50;69.40
25550;DHT22;13444;50.562;7.262;2023-10-08T09:33:12;20.70;71.00
25550;DHT22;13444;50.562;7.262;2023-10-08T09:35:37;21.00;68.50
25550;DHT22;13444;50.562;7.262;2023-10-08T09:38:04;21.30;64.20
25550;DHT22;13444;50.562;7.262;2023-10-08T09:40:30;21.50;41.60
25550;DHT22;13444;50.562;7.262;2023-10-08T09:42:56;21.70;47.60
25550;DHT22;13444;50.562;7.262;2023-10-08T09:45:22;21.90;52.80
25550;DHT22;13444;50.562;7.262;2023-10-08T09:47:58;22.20;47.40
25550;DHT22;13444;50.562;7.262;2023-10-08T09:50:30;22.40;38.00
25550;DHT22;13444;50.562;7.262;2023-10-08T09:53:16;22.60;27.40
25550;DHT22;13444;50.562;7.262;2023-10-08T09:55:56;22.80;23.20
25550;DHT22;13444;50.562;7.262;2023-10-08T09:58:28;23.00;24.90
25550;DHT22;13444;50.562;7.262;2023-10-08T10:00:55;23.10;10.10
25550;DHT22;13444;50.562;7.262;2023-10-08T10:03:21;23.10;16.10
25550;DHT22;13444;50.562;7.262;2023-10-08T10:05:50;23.20;13.00
25550;DHT22;13444;50.562;7.262;2023-10-08T10:08:16;23.30;21.80
25550;DHT22;13444;50.562;7.262;2023-10-08T10:10:42;23.30;1.00
25550;DHT22;13444;50.562;7.262;2023-10-08T10:13:14;23.20;9.60
25550;DHT22;13444;50.562;7.262;2023-10-08T10:15:42;23.40;20.10
25550;DHT22;13444;50.562;7.262;2023-10-08T10:18:09;23.70;15.60
25550;DHT22;13444;50.562;7.262;2023-10-08T10:20:47;24.00;12.60
25550;DHT22;13444;50.562;7.262;2023-10-08T10:23:53;24.30;3.30
25550;DHT22;13444;50.562;7.262;2023-10-08T10:31:43;24.90;1.00
25550;DHT22;13444;50.562;7.262;2023-10-08T10:34:25;25.10;1.00
25550;DHT22;13444;50.562;7.262;2023-10-08T10:36:56;25.30;1.00
25550;DHT22;13444;50.562;7.262;2023-10-08T10:39:24;25.40;1.00
25550;DHT22;13444;50.562;7.262;2023-10-08T10:41:55;25.40;1.00
25550;DHT22;13444;50.562;7.262;2023-10-08T10:44:29;25.10;1.00
25550;DHT22;13444;50.562;7.262;2023-10-08T10:46:56;25.10;1.00
25550;DHT22;13444;50.562;7.262;2023-10-08T10:49:41;25.20;1.00
25550;DHT22;13444;50.562;7.262;2023-10-08T10:52:28;25.00;1.00
25550;DHT22;13444;50.562;7.262;2023-10-08T10:55:04;25.00;1.00
25550;DHT22;13444;50.562;7.262;2023-10-08T10:57:56;25.10;1.00
25550;DHT22;13444;50.562;7.262;2023-10-08T11:00:26;24.90;1.00
25550;DHT22;13444;50.562;7.262;2023-10-08T11:03:14;25.00;1.00
25550;DHT22;13444;50.562;7.262;2023-10-08T11:05:46;25.20;1.00
25550;DHT22;13444;50.562;7.262;2023-10-08T11:08:15;25.30;1.00
25550;DHT22;13444;50.562;7.262;2023-10-08T11:10:42;25.50;1.00
25550;DHT22;13444;50.562;7.262;2023-10-08T11:13:20;25.40;1.00
25550;DHT22;13444;50.562;7.262;2023-10-08T11:15:51;25.40;1.00
25550;DHT22;13444;50.562;7.262;2023-10-08T11:18:21;25.50;1.00
25550;DHT22;13444;50.562;7.262;2023-10-08T11:20:50;25.40;1.00
25550;DHT22;13444;50.562;7.262;2023-10-08T11:23:36;25.60;1.00
25550;DHT22;13444;50.562;7.262;2023-10-08T11:26:05;25.40;1.00
25550;DHT22;13444;50.562;7.262;2023-10-08T11:28:34;25.40;1.00
25550;DHT22;13444;50.562;7.262;2023-10-08T11:31:04;25.40;1.00
25550;DHT22;13444;50.562;7.262;2023-10-08T11:33:37;25.40;1.00
25550;DHT22;13444;50.562;7.262;2023-10-08T11:36:05;25.50;1.00
25550;DHT22;13444;50.562;7.262;2023-10-08T11:38:44;25.40;1.00
25550;DHT22;13444;50.562;7.262;2023-10-08T11:41:14;25.40;1.00
25550;DHT22;13444;50.562;7.262;2023-10-08T11:43:56;25.50;1.00
25550;DHT22;13444;50.562;7.262;2023-10-08T11:46:27;25.70;1.00
25550;DHT22;13444;50.562;7.262;2023-10-08T11:48:54;25.30;1.00
25550;DHT22;13444;50.562;7.262;2023-10-08T11:51:24;25.00;1.00
25550;DHT22;13444;50.562;7.262;2023-10-08T11:53:50;24.60;1.00
25550;DHT22;13444;50.562;7.262;2023-10-08T11:56:17;24.40;1.00
25550;DHT22;13444;50.562;7.262;2023-10-08T11:58:46;24.40;1.00
25550;DHT22;13444;50.562;7.262;2023-10-08T12:01:12;24.50;1.00
25550;DHT22;13444;50.562;7.262;2023-10-08T12:03:42;24.60;1.00
25550;DHT22;13444;50.562;7.262;2023-10-08T12:06:10;24.60;1.00
25550;DHT22;13444;50.562;7.262;2023-10-08T12:08:41;24.50;1.00
25550;DHT22;13444;50.562;7.262;2023-10-08T12:11:06;24.50;1.00
25550;DHT22;13444;50.562;7.262;2023-10-08T12:13:37;24.60;1.00
25550;DHT22;13444;50.562;7.262;2023-10-08T12:16:03;24.60;1.00
25550;DHT22;13444;50.562;7.262;2023-10-08T12:18:32;24.50;1.00
25550;DHT22;13444;50.562;7.262;2023-10-08T12:21:05;24.30;1.00
25550;DHT22;13444;50.562;7.262;2023-10-08T12:23:36;24.30;1.00
25550;DHT22;13444;50.562;7.262;2023-10-08T12:26:03;24.20;1.00
25550;DHT22;13444;50.562;7.262;2023-10-08T12:28:29;23.90;1.00
25550;DHT22;13444;50.562;7.262;2023-10-08T12:30:54;23.70;1.00
25550;DHT22;13444;50.562;7.262;2023-10-08T12:33:24;23.60;1.00
25550;DHT22;13444;50.562;7.262;2023-10-08T12:35:51;23.50;1.00
25550;DHT22;13444;50.562;7.262;2023-10-08T12:38:24;23.60;1.00
25550;DHT22;13444;50.562;7.262;2023-10-08T12:40:53;23.60;1.00
25550;DHT22;13444;50.562;7.262;2023-10-08T12:43:20;23.60;1.00
25550;DHT22;13444;50.562;7.262;2023-10-08T12:45:49;23.60;1.00
25550;DHT22;13444;50.562;7.262;2023-10-08T12:48:23;23.60;1.00
25550;DHT22;13444;50.562;7.262;2023-10-08T12:50:49;23.70;1.00
25550;DHT22;13444;50.562;7.262;2023-10-08T12:53:25;23.80;1.00
25550;DHT22;13444;50.562;7.262;2023-10-08T12:55:59;23.80;1.00
25550;DHT22;13444;50.562;7.262;2023-10-08T12:58:31;23.80;1.00
25550;DHT22;13444;50.562;7.262;2023-10-08T13:00:57;23.70;1.00
25550;DHT22;13444;50.562;7.262;2023-10-08T13:03:26;23.70;1.00
25550;DHT22;13444;50.562;7.262;2023-10-08T13:05:56;23.60;1.00
25550;DHT22;13444;50.562;7.262;2023-10-08T13:08:30;23.60;1.00
25550;DHT22;13444;50.562;7.262;2023-10-08T13:10:55;23.50;1.00
25550;DHT22;13444;50.562;7.262;2023-10-08T13:13:26;23.50;1.00
25550;DHT22;13444;50.562;7.262;2023-10-08T13:15:52;23.50;1.00
25550;DHT22;13444;50.562;7.262;2023-10-08T13:18:22;23.40;1.00
25550;DHT22;13444;50.562;7.262;2023-10-08T13:20:47;23.30;1.00
25550;DHT22;13444;50.562;7.262;2023-10-08T13:23:13;23.30;1.00
25550;DHT22;13444;50.562;7.262;2023-10-08T13:25:39;23.20;1.00
25550;DHT22;13444;50.562;7.262;2023-10-08T13:28:05;23.10;1.50
25550;DHT22;13444;50.562;7.262;2023-10-08T13:30:32;23.20;5.30
25550;DHT22;13444;50.562;7.262;2023-10-08T13:32:58;23.20;6.90
25550;DHT22;13444;50.562;7.262;2023-10-08T13:35:25;23.30;5.60
25550;DHT22;13444;50.562;7.262;2023-10-08T13:37:50;23.30;1.00
25550;DHT22;13444;50.562;7.262;2023-10-08T13:40:17;23.30;1.00
25550;DHT22;13444;50.562;7.262;2023-10-08T13:42:43;23.30;1.00
25550;DHT22;13444;50.562;7.262;2023-10-08T13:45:09;23.30;1.60
25550;DHT22;13444;50.562;7.262;2023-10-08T13:47:35;23.30;2.30
25550;DHT22;13444;50.562;7.262;2023-10-08T13:50:01;23.30;1.00
25550;DHT22;13444;50.562;7.262;2023-10-08T13:52:35;23.20;1.00
25550;DHT22;13444;50.562;7.262;2023-10-08T13:55:06;23.20;1.00
25550;DHT22;13444;50.562;7.262;2023-10-08T13:57:32;23.20;1.00
25550;DHT22;13444;50.562;7.262;2023-10-08T13:59:58;23.30;2.10
25550;DHT22;13444;50.562;7.262;2023-10-08T14:02:25;23.30;1.00
25550;DHT22;13444;50.562;7.262;2023-10-08T14:04:55;23.40;1.00
25550;DHT22;13444;50.562;7.262;2023-10-08T14:07:23;23.30;1.00
25550;DHT22;13444;50.562;7.262;2023-10-08T14:09:48;23.30;1.00
25550;DHT22;13444;50.562;7.262;2023-10-08T14:12:16;23.20;1.00
25550;DHT22;13444;50.562;7.262;2023-10-08T14:14:41;23.10;1.00
25550;DHT22;13444;50.562;7.262;2023-10-08T14:17:11;23.10;1.00
25550;DHT22;13444;50.562;7.262;2023-10-08T14:20:02;23.10;1.00
25550;DHT22;13444;50.562;7.262;2023-10-08T14:22:33;23.20;1.00
25550;DHT22;13444;50.562;7.262;2023-10-08T14:25:00;23.10;1.00
25550;DHT22;13444;50.562;7.262;2023-10-08T14:27:27;23.20;1.00
25550;DHT22;13444;50.562;7.262;2023-10-08T14:30:07;23.20;1.00
25550;DHT22;13444;50.562;7.262;2023-10-08T14:32:43;23.30;1.00
25550;DHT22;13444;50.562;7.262;2023-10-08T14:35:12;23.30;1.00
25550;DHT22;13444;50.562;7.262;2023-10-08T14:37:56;23.40;1.00
25550;DHT22;13444;50.562;7.262;2023-10-08T14:40:40;23.30;1.00
25550;DHT22;13444;50.562;7.262;2023-10-08T14:43:24;23.20;1.00
25550;DHT22;13444;50.562;7.262;2023-10-08T14:45:50;23.20;1.00
25550;DHT22;13444;50.562;7.262;2023-10-08T14:48:18;23.10;1.00
25550;DHT22;13444;50.562;7.262;2023-10-08T14:50:43;23.10;1.00
25550;DHT22;13444;50.562;7.262;2023-10-08T14:53:09;23.10;1.00
25550;DHT22;13444;50.562;7.262;2023-10-08T14:55:38;23.10;1.00
25550;DHT22;13444;50.562;7.262;2023-10-08T14:58:07;23.10;1.00
25550;DHT22;13444;50.562;7.262;2023-10-08T15:00:34;23.10;3.20
25550;DHT22;13444;50.562;7.262;2023-10-08T15:03:02;23.10;1.20
25550;DHT22;13444;50.562;7.262;2023-10-08T15:05:31;23.10;2.50
25550;DHT22;13444;50.562;7.262;2023-10-08T15:07:56;23.00;4.30
25550;DHT22;13444;50.562;7.262;2023-10-08T15:10:22;23.00;6.40
25550;DHT22;13444;50.562;7.262;2023-10-08T15:12:48;23.00;4.50
25550;DHT22;13444;50.562;7.262;2023-10-08T15:15:14;23.00;5.40
25550;DHT22;13444;50.562;7.262;2023-10-08T15:17:44;22.90;9.00
25550;DHT22;13444;50.562;7.262;2023-10-08T15:20:11;22.90;11.30
25550;DHT22;13444;50.562;7.262;2023-10-08T15:22:45;22.80;12.10
25550;DHT22;13444;50.562;7.262;2023-10-08T15:25:12;22.70;13.80
25550;DHT22;13444;50.562;7.262;2023-10-08T15:27:39;22.70;13.60
25550;DHT22;13444;50.562;7.262;2023-10-08T15:30:09;22.60;14.80
25550;DHT22;13444;50.562;7.262;2023-10-08T15:32:42;22.60;17.40
25550;DHT22;13444;50.562;7.262;2023-10-08T15:35:17;22.70;18.50
25550;DHT22;13444;50.562;7.262;2023-10-08T15:37:48;22.60;19.40
25550;DHT22;13444;50.562;7.262;2023-10-08T15:40:14;22.60;21.20
25550;DHT22;13444;50.562;7.262;2023-10-08T15:42:49;22.60;23.20
25550;DHT22;13444;50.562;7.262;2023-10-08T15:45:19;22.60;26.00
25550;DHT22;13444;50.562;7.262;2023-10-08T15:47:45;22.60;26.90
25550;DHT22;13444;50.562;7.262;2023-10-08T15:50:11;22.50;28.30
25550;DHT22;13444;50.562;7.262;2023-10-08T15:52:40;22.50;28.30
25550;DHT22;13444;50.562;7.262;2023-10-08T15:55:06;22.40;29.70
25550;DHT22;13444;50.562;7.262;2023-10-08T15:57:33;22.30;32.70
25550;DHT22;13444;50.562;7.262;2023-10-08T15:59:58;22.30;35.20
25550;DHT22;13444;50.562;7.262;2023-10-08T16:02:24;22.20;37.50